Winger, Minnesota
Current Conditions -  °F | °C
As of 6:55 PM on Wednesday 22 Oct 2014 (Local Time) from KFSE Reporting Station
Moderate Rain Moderate Rain  
Wind Chill: 57°   Ceiling: 3900
Heat Index: 57°   Visibility: 10mi
Dew Point: 46°   Wind: 15mph
Humidity: 67%   Direction: 180°S
Pressure: 29.87"   Gusts: NA
Location:  47.54°N, 95.99°W
Report Text: KFSE 222355Z AUTO 18013KT 10SM RA OVC039 14/08 A2987 RMK AO2
Loading
Personal Weather Stations






























Interactive Weather Map
Tropical Storm Tracking
New forecast layout! Learn more

10-Day Weather Forecast

Advertisements
Track Severe Weather on mobile